Calvin, Oklahoma
Current Conditions -  °F | °C
As of 2:35 AM on Friday 31 Oct 2014 (Local Time) from KADH Reporting Station
Clear Clear  
Wind Chill: 12°   Ceiling: Unl
Heat Index: 12°   Visibility: 10mi
Dew Point:   Wind: 10mph
Humidity: 62%   Direction: 360°N
Pressure: 30.22"   Gusts: NA
Location:  34.97°N, 96.25°W
Report Text: KADH 310735Z AUTO 36009KT 10SM CLR 12/05 A3022 RMK AO2
Loading
Personal Weather Stations






























Interactive Weather Map
Tropical Storm Tracking
New forecast layout! Learn more

10-Day Weather Forecast

Advertisements
Track Severe Weather on mobile